Manado/Sam Ratulang International Airport

Airport
ICAO code: 
WAMM
IATA Code: 
MDC
Summary
ICAO Region: 
APAC
Territory: 
Location: 
Manado, North Sulawesi,
Serving: 
Manado
Elevation: 
264 ft
Coordinates: 
Aerial View: 
1° 32' 55.564" N, 124° 55' 35.538" E
Metar
Observation
WAMM 171700Z VRB01KT 8000 SCT020 24/23 Q1010 NOSIG
Station
Menado / Dr. Sam Ratulangi
Date/Time
2022-01-17 17:00:00
Wind speed
01 kts
Lowest cloud amount
scattered clouds
Temperature
24°C
Dew point
23°C
Humidity
94%
QNH
1010 hPa
Weather condition
n/a

Description

Sam Ratulangi International Airport (SRA), also known as Manado International Airport, is located in North Sulawesi, 13 km northeast of Manado.

Climatology

Tropical Rainforest climate (Köppen climate classification Af) - almost no distinct seasons, average daily temperature around 27°C throughout the year. Extensive cloud cover and heavy rainfall prevent temperatures from rising much over 33°C. The diurnal temperature change is between 2°C and 5°C which is greater than the annual temperature range of 2°C. Rainfall is heavy and is usually convectional and in the afternoon.

Runways

Designator Length Width Surface Rops
18/36 2650 45 ASP Yes/Yes
Airport map: 
Aerial View: 

SKYbrary Partners:

Safety knowledge contributed by: